Terminal Aerodrome Forecast
Issued by NWS

Home | Current Version | Previous Version | Text Only | Print | Product List | Glossary On
Versions: 1 2 3 4 5 6 7 8 9 10 11 12 13 14 15 16 17 18 19 20
180
FTUS43 KGRB 032132 AAC
TAFMTW
TAF AMD
KMTW 032132Z 0322/0418 32012G21KT P6SM SCT020 OVC045
     FM032300 31010KT P6SM BKN045
     FM040900 29006KT P6SM SCT030 BKN150
     FM041400 27005KT P6SM SCT015 BKN040=

USA.gov is the U.S. government's official web portal to all federal, state and local government web resources and services.